Aviation Digital Data Service (ADDS)

Output produced by TAFs form (1653 UTC 30 September 2016)
found at http://aviationweather.gov/adds/tafs/
 
KPUB 301141Z 3012/0112 30006KT P6SM SCT140 BKN250 
     FM301700 02007KT P6SM SCT120 BKN200 
     FM302300 09011KT P6SM SCT090 BKN200 
     FM010000 06010KT P6SM VCTS SCT090CB BKN150 
     FM010300 03012KT P6SM VCSH SCT080 BKN120 
     FM010600 35008KT P6SM SCT080 BKN150